Grand Rapids, Michigan
Current Conditions -  °F | °C
As of 2:53 PM on Thursday 27 Nov 2014 (Local Time) from KGRR Reporting Station
Light Snow Light Snow  
Wind Chill: 19°   Ceiling: 2500
Heat Index: 29°   Visibility: 9mi
Dew Point: 21°   Wind: 13mph
Humidity: 72%   Direction: 310°NW
Pressure: 30.22"   Gusts: NA
Location:  42.97°N, 85.67°W
Report Text: KGRR 271953Z 31011KT 9SM -SN BKN025 OVC044 M02/M06 A3022 RMK AO2 SNB1854E00B16 SLP244 P0000 T10171061
Loading
Personal Weather Stations






























Interactive Weather Map New forecast layout! Learn more

10-Day Weather Forecast

Advertisements
Track Severe Weather on mobile